Time;durP1;ratioP1;P1;durP2;ratioP2;P2;SDS_P1;SDS_P2;PMS_P1;PMS_P2;Temp;Humidity;BMP_temperature;BMP_pressure;BME280_temperature;BME280_humidity;BME280_pressure;Samples;Min_cycle;Max_cycle;Signal;HPM_P1;HPM_P2
2021/03/17 00:02:01;;;;;;;;;;;;;;;-0.65;100.00;93303.69;1426777;39;20210;31
2021/03/17 00:03:15;;;;;;;;;;;;;;;-0.67;100.00;93300.63;1437157;39;21126;31
2021/03/17 00:04:29;;;;;;;;;;;;;;;-0.64;99.82;93301.81;1421943;39;21118;31
2021/03/17 00:05:43;;;;;;;;;;;;;;;-0.64;100.00;93299.97;1419350;39;20238;31
2021/03/17 00:06:45;;;;;;;;;;;;;;;-0.67;100.00;93297.25;1425176;39;22318;31
2021/03/17 00:07:59;;;;;;;;;;;;;;;-0.66;100.00;93296.13;1422472;39;21136;31
2021/03/17 00:09:03;;;;;;;;;;;;;;;-0.67;100.00;93297.25;1425008;39;20660;31
2021/03/17 00:11:10;;;;;;;;;;;;;;;-0.68;100.00;93295.72;1430095;39;21221;31
2021/03/17 00:12:24;;;;;;;;;;;;;;;-0.67;100.00;93290.12;1439982;39;20257;31
2021/03/17 00:13:38;;;;;;;;;;;;;;;-0.62;100.00;93291.72;1420024;39;21827;31
2021/03/17 00:14:52;;;;;;;;;;;;;;;-0.62;100.00;93294.34;1421969;39;21172;31
2021/03/17 00:16:06;;;;;;;;;;;;;;;-0.57;99.88;93291.47;1421565;39;20238;31
2021/03/17 00:17:10;;;;;;;;;;;;;;;-0.60;100.00;93289.53;1416741;39;20328;31
2021/03/17 00:18:13;;;;;;;;;;;;;;;-0.62;100.00;93292.50;1421143;39;22445;31
2021/03/17 00:19:27;;;;;;;;;;;;;;;-0.60;100.00;93292.94;1415765;39;20295;31
2021/03/17 00:20:41;;;;;;;;;;;;;;;-0.57;100.00;93294.09;1416631;39;21145;31
2021/03/17 00:21:43;;;;;;;;;;;;;;;-0.68;100.00;93288.63;1414006;39;21134;31
2021/03/17 00:22:46;;;;;;;;;;;;;;;-0.69;100.00;93281.09;1419705;39;22506;31
2021/03/17 00:27:09;;;;;;;;;;;;;;;-0.68;100.00;93287.84;1440410;39;20485;31
2021/03/17 00:30:54;;;;;;;;;;;;;;;-0.68;100.00;93279.97;1434232;39;20336;31
2021/03/17 00:32:08;;;;;;;;;;;;;;;-0.72;100.00;93285.16;1422001;39;20274;31
2021/03/17 00:34:40;;;;;;;;;;;;;;;-0.61;100.00;93277.53;1429230;39;20238;31
2021/03/17 00:35:44;;;;;;;;;;;;;;;-0.59;100.00;93286.56;1417676;39;20266;31
2021/03/17 00:39:04;;;;;;;;;;;;;;;-0.44;100.00;93284.25;1442868;39;22238;31
2021/03/17 00:40:06;;;;;;;;;;;;;;;-0.50;100.00;93286.37;1429254;39;20214;31
2021/03/17 00:41:20;;;;;;;;;;;;;;;-0.61;100.00;93278.28;1415218;39;20282;31
2021/03/17 00:42:24;;;;;;;;;;;;;;;-0.70;100.00;93280.34;1423625;39;20581;31
2021/03/17 00:43:38;;;;;;;;;;;;;;;-0.61;100.00;93280.91;1420246;39;20244;31
2021/03/17 00:44:40;;;;;;;;;;;;;;;-0.62;100.00;93282.00;1418653;39;21194;31
2021/03/17 00:45:54;;;;;;;;;;;;;;;-0.65;100.00;93279.31;1412537;40;21185;31
2021/03/17 00:46:58;;;;;;;;;;;;;;;-0.68;100.00;93279.97;1417908;39;21296;31
2021/03/17 00:48:02;;;;;;;;;;;;;;;-0.63;100.00;93284.97;1418337;39;20239;31
2021/03/17 00:49:20;;;;;;;;;;;;;;;-0.61;100.00;93280.91;1108883;39;20295;-85
2021/03/17 00:50:24;;;;;;;;;;;;;;;-0.62;100.00;93275.97;1405185;39;20254;31
2021/03/17 00:52:41;;;;;;;;;;;;;;;-0.64;100.00;93276.34;1428427;39;21172;31
2021/03/17 00:53:55;;;;;;;;;;;;;;;-0.57;100.00;93275.72;1413179;39;22215;31
2021/03/17 00:55:09;;;;;;;;;;;;;;;-0.60;100.00;93277.19;1448498;39;21295;31
2021/03/17 00:56:23;;;;;;;;;;;;;;;-0.64;100.00;93281.59;1432568;39;20237;31
2021/03/17 00:57:37;;;;;;;;;;;;;;;-0.61;100.00;93277.53;1425017;39;20911;31
2021/03/17 00:58:51;;;;;;;;;;;;;;;-0.59;100.00;93273.44;1427541;39;21231;31
2021/03/17 01:00:05;;;;;;;;;;;;;;;-0.60;100.00;93282.44;1431897;39;21717;31
2021/03/17 01:01:05;;;;;;;;;;;;;;;-0.63;100.00;93277.09;1057381;49;20105;-85
2021/03/17 01:04:26;;;;;;;;;;;;;;;-0.49;100.00;93274.03;1448724;39;21007;31
2021/03/17 01:05:40;;;;;;;;;;;;;;;-0.55;100.00;93276.91;1418104;39;22432;31
2021/03/17 01:07:56;;;;;;;;;;;;;;;-0.56;100.00;93266.75;1420566;39;20334;31
2021/03/17 01:14:26;;;;;;;;;;;;;;;-0.68;100.00;93269.47;1444562;39;20245;31
2021/03/17 01:18:12;;;;;;;;;;;;;;;-0.72;100.00;93258.13;1228609;39;20351;31
2021/03/17 01:19:16;;;;;;;;;;;;;;;-0.74;100.00;93262.97;1439394;39;21994;31
2021/03/17 01:21:48;;;;;;;;;;;;;;;-0.53;100.00;93258.97;1440435;39;20202;31
2021/03/17 01:22:52;;;;;;;;;;;;;;;-0.53;100.00;93258.19;1400635;39;20129;31
2021/03/17 01:23:55;;;;;;;;;;;;;;;-0.57;100.00;93252.09;1116149;39;21843;31
2021/03/17 01:26:04;;;;;;;;;;;;;;;-0.60;100.00;93256.19;1303361;39;20244;31
2021/03/17 01:27:18;;;;;;;;;;;;;;;-0.51;100.00;93251.50;1435024;39;20275;31
2021/03/17 01:28:18;;;;;;;;;;;;;;;-0.61;100.00;93243.41;1063408;49;21097;-85
2021/03/17 01:29:19;;;;;;;;;;;;;;;-0.61;100.00;93248.66;1048976;56;20226;-85
2021/03/17 01:30:22;;;;;;;;;;;;;;;-0.65;100.00;93253.81;1048036;56;20203;-88
2021/03/17 01:31:23;;;;;;;;;;;;;;;-0.65;100.00;93245.94;1047809;56;20257;-88
2021/03/17 01:32:23;;;;;;;;;;;;;;;-0.66;100.00;93244.44;1048347;56;20196;-84
2021/03/17 01:33:26;;;;;;;;;;;;;;;-0.74;100.00;93247.25;1393044;39;20233;31
2021/03/17 01:34:30;;;;;;;;;;;;;;;-0.68;100.00;93236.12;1418679;39;21371;31
2021/03/17 01:35:32;;;;;;;;;;;;;;;-0.72;100.00;93251.03;1285873;39;20662;31
2021/03/17 01:36:46;;;;;;;;;;;;;;;-0.70;100.00;93237.56;1364457;39;20699;31
2021/03/17 01:37:48;;;;;;;;;;;;;;;-0.72;100.00;93243.16;1353766;39;22294;31
2021/03/17 01:39:02;;;;;;;;;;;;;;;-0.70;100.00;93237.56;1404644;39;20597;31
2021/03/17 01:40:07;;;;;;;;;;;;;;;-0.64;100.00;93236.97;1352276;39;21130;31
2021/03/17 01:41:09;;;;;;;;;;;;;;;-0.65;100.00;93237.31;1416512;39;20188;31
2021/03/17 01:44:20;;;;;;;;;;;;;;;-0.65;100.00;93232.06;1438564;39;20237;31
2021/03/17 01:45:24;;;;;;;;;;;;;;;-0.60;100.00;93237.81;1166909;39;20140;31
2021/03/17 01:46:28;;;;;;;;;;;;;;;-0.63;100.00;93233.22;1107081;39;20125;31
2021/03/17 01:47:42;;;;;;;;;;;;;;;-0.65;100.00;93232.81;1407011;39;20545;31
2021/03/17 01:48:44;;;;;;;;;;;;;;;-0.64;100.00;93233.59;1111466;39;20284;31
2021/03/17 01:49:44;;;;;;;;;;;;;;;-0.52;100.00;93236.09;1047941;49;20137;-85
2021/03/17 01:50:47;;;;;;;;;;;;;;;-0.54;100.00;93225.16;1045864;57;20190;-84
2021/03/17 01:51:47;;;;;;;;;;;;;;;-0.55;100.00;93229.66;1044342;57;20237;-85
2021/03/17 01:52:48;;;;;;;;;;;;;;;-0.63;100.00;93233.22;1046553;57;20169;-84
2021/03/17 01:53:48;;;;;;;;;;;;;;;-0.65;100.00;93235.44;1047840;56;20131;-84
2021/03/17 01:54:51;;;;;;;;;;;;;;;-0.73;100.00;93233.75;1047460;56;20243;-85
2021/03/17 01:55:51;;;;;;;;;;;;;;;-0.70;100.00;93227.84;1051135;56;20630;-86
2021/03/17 01:57:56;;;;;;;;;;;;;;;-0.78;100.00;93224.28;1057869;48;20226;-85
2021/03/17 01:58:56;;;;;;;;;;;;;;;-0.78;100.00;93229.53;1051162;56;20341;-86
2021/03/17 01:59:57;;;;;;;;;;;;;;;-0.78;100.00;93226.16;1050690;56;20649;-84
2021/03/17 02:00:57;;;;;;;;;;;;;;;-0.77;100.00;93227.66;1050908;56;20188;-84
2021/03/17 02:01:58;;;;;;;;;;;;;;;-0.80;100.00;93223.09;1053955;56;20111;-85
2021/03/17 02:02:59;;;;;;;;;;;;;;;-0.81;100.00;93218.97;1052919;56;20125;-84
2021/03/17 02:04:00;;;;;;;;;;;;;;;-0.84;100.00;93217.75;1048854;56;20780;-86
2021/03/17 02:05:03;;;;;;;;;;;;;;;-0.69;100.00;93218.84;1048764;56;20132;-85
2021/03/17 02:06:04;;;;;;;;;;;;;;;-0.66;100.00;93212.94;1050918;56;20628;-85
2021/03/17 02:07:04;;;;;;;;;;;;;;;-0.62;100.00;93213.75;1052820;56;20100;-86
2021/03/17 02:08:06;;;;;;;;;;;;;;;-0.68;100.00;93219.63;1051189;56;20097;-85
2021/03/17 02:09:06;;;;;;;;;;;;;;;-0.70;100.00;93212.09;1049089;56;20144;-84
2021/03/17 02:10:11;;;;;;;;;;;;;;;-0.75;100.00;93212.34;1051106;56;20157;-85
2021/03/17 02:11:47;;;;;;;;;;;;;;;-0.78;100.00;93218.28;1048979;56;20179;-83
2021/03/17 02:13:53;;;;;;;;;;;;;;;-0.70;100.00;93221.81;1061931;48;20218;-86
2021/03/17 02:15:09;;;;;;;;;;;;;;;-0.67;100.00;93221.12;1052770;56;20274;-85
2021/03/17 02:16:13;;;;;;;;;;;;;;;-0.70;100.00;93216.56;1047856;56;20128;-82
2021/03/17 02:17:16;;;;;;;;;;;;;;;-0.73;100.00;93218.03;1048501;56;20792;-86
2021/03/17 02:18:22;;;;;;;;;;;;;;;-0.73;100.00;93220.62;1050294;56;20241;-85
2021/03/17 02:19:31;;;;;;;;;;;;;;;-0.75;100.00;93217.59;1048912;56;20205;-84
2021/03/17 02:21:41;;;;;;;;;;;;;;;-0.77;100.00;93215.31;1058677;48;20759;-85
2021/03/17 02:22:48;;;;;;;;;;;;;;;-0.73;100.00;93212.78;1048055;56;20267;-85
2021/03/17 02:23:51;;;;;;;;;;;;;;;-0.69;100.00;93212.84;1048433;56;20149;-84
2021/03/17 02:25:10;;;;;;;;;;;;;;;-0.68;100.00;93215.13;1051206;56;20192;-84
2021/03/17 02:27:32;;;;;;;;;;;;;;;-0.75;100.00;93217.59;1065961;49;20128;-83
2021/03/17 02:28:58;;;;;;;;;;;;;;;-0.81;100.00;93211.84;1050726;56;20137;-86
2021/03/17 02:30:17;;;;;;;;;;;;;;;-0.82;100.00;93212.94;1049621;56;20187;-84
2021/03/17 02:31:19;;;;;;;;;;;;;;;-0.82;100.00;93210.31;1053145;56;20193;-86
2021/03/17 02:33:45;;;;;;;;;;;;;;;-0.74;100.00;93210.50;1062911;48;20198;-88
2021/03/17 02:37:05;;;;;;;;;;;;;;;-0.81;100.00;93214.47;1338536;39;21666;31
2021/03/17 02:38:19;;;;;;;;;;;;;;;-0.78;100.00;93216.41;1427519;39;20207;-79
2021/03/17 02:39:25;;;;;;;;;;;;;;;-0.76;100.00;93211.56;1047397;49;20143;-84
2021/03/17 02:41:31;;;;;;;;;;;;;;;-0.80;100.00;93218.59;1066085;48;20156;-84
2021/03/17 02:42:35;;;;;;;;;;;;;;;-0.79;100.00;93211.50;1053096;56;20117;-85
2021/03/17 02:43:39;;;;;;;;;;;;;;;-0.78;100.00;93203.31;1052866;56;20188;-84
2021/03/17 02:44:48;;;;;;;;;;;;;;;-0.76;100.00;93208.94;1052840;56;20106;-83
2021/03/17 02:45:54;;;;;;;;;;;;;;;-0.73;100.00;93210.16;1049525;56;20165;-83
2021/03/17 02:46:56;;;;;;;;;;;;;;;-0.74;100.00;93216.50;1051008;56;20811;-83
2021/03/17 02:48:03;;;;;;;;;;;;;;;-0.60;100.00;93211.56;1052985;56;20141;-84
2021/03/17 02:49:11;;;;;;;;;;;;;;;-0.66;100.00;93210.31;1053315;56;20108;-84
2021/03/17 02:50:12;;;;;;;;;;;;;;;-0.73;100.00;93218.03;1051276;56;20105;-85
2021/03/17 02:51:30;;;;;;;;;;;;;;;-0.75;100.00;93222.84;1050868;56;20162;-83
2021/03/17 02:52:33;;;;;;;;;;;;;;;-0.72;100.00;93211.66;1051933;56;20141;-82
2021/03/17 02:53:34;;;;;;;;;;;;;;;-0.72;100.00;93211.66;1050291;56;20188;-84
2021/03/17 02:54:35;;;;;;;;;;;;;;;-0.70;100.00;93219.97;1050648;56;20168;-85
2021/03/17 02:55:41;;;;;;;;;;;;;;;-0.76;100.00;93214.19;1050683;56;20164;-86
2021/03/17 02:56:47;;;;;;;;;;;;;;;-0.74;100.00;93208.63;1048877;56;20217;-85
2021/03/17 02:57:48;;;;;;;;;;;;;;;-0.69;100.00;93213.59;1052731;56;20264;-85
2021/03/17 02:58:50;;;;;;;;;;;;;;;-0.68;100.00;93209.13;1051282;56;20180;-86
2021/03/17 02:59:51;;;;;;;;;;;;;;;-0.64;100.00;93220.47;1048339;56;20154;-86
2021/03/17 03:00:51;;;;;;;;;;;;;;;-0.62;100.00;93213.75;1048700;56;20197;-84
2021/03/17 03:01:53;;;;;;;;;;;;;;;-0.59;100.00;93220.19;1050892;56;20181;-86
2021/03/17 03:02:54;;;;;;;;;;;;;;;-0.62;100.00;93219.00;1052868;56;20157;-84
2021/03/17 03:03:56;;;;;;;;;;;;;;;-0.67;100.00;93211.38;1055046;56;20242;-82
2021/03/17 03:04:57;;;;;;;;;;;;;;;-0.65;100.00;93216.31;1050504;56;20180;-84
2021/03/17 03:05:57;;;;;;;;;;;;;;;-0.66;100.00;93222.66;1048804;56;20176;-82
2021/03/17 03:06:58;;;;;;;;;;;;;;;-0.66;100.00;93225.28;1052851;56;20176;-84
2021/03/17 03:07:59;;;;;;;;;;;;;;;-0.69;100.00;93221.47;1050706;56;20157;-84
2021/03/17 03:09:01;;;;;;;;;;;;;;;-0.68;100.00;93212.50;1052952;56;20187;-84
2021/03/17 03:10:03;;;;;;;;;;;;;;;-0.73;100.00;93225.13;1050842;56;20125;-83
2021/03/17 03:11:04;;;;;;;;;;;;;;;-0.74;100.00;93216.50;1048650;56;20129;-84
2021/03/17 03:12:06;;;;;;;;;;;;;;;-0.70;100.00;93216.56;1045175;56;20166;-82
2021/03/17 03:13:07;;;;;;;;;;;;;;;-0.68;100.00;93222.25;1047304;56;20176;-83
2021/03/17 03:14:08;;;;;;;;;;;;;;;-0.70;100.00;93230.47;1048635;56;20249;-87
2021/03/17 03:15:09;;;;;;;;;;;;;;;-0.73;100.00;93225.87;1048748;56;20245;-84
2021/03/17 03:16:10;;;;;;;;;;;;;;;-0.75;100.00;93225.44;1050687;56;20098;-83
2021/03/17 03:17:11;;;;;;;;;;;;;;;-0.74;100.00;93228.88;1046432;56;20106;-85
2021/03/17 03:18:12;;;;;;;;;;;;;;;-0.76;100.00;93229.94;1048710;57;20161;-82
2021/03/17 03:19:13;;;;;;;;;;;;;;;-0.74;100.00;93231.50;1050878;56;20252;-83
2021/03/17 03:20:16;;;;;;;;;;;;;;;-0.74;100.00;93231.50;1046529;56;20327;-83
2021/03/17 03:21:21;;;;;;;;;;;;;;;-0.76;100.00;93232.56;1046754;56;20094;-83
2021/03/17 03:22:25;;;;;;;;;;;;;;;-0.77;100.00;93231.06;1048658;56;20148;-83
2021/03/17 03:23:27;;;;;;;;;;;;;;;-0.72;100.00;93237.91;1050742;56;20192;-85
2021/03/17 03:24:28;;;;;;;;;;;;;;;-0.72;100.00;93224.03;1049062;56;20129;-84
2021/03/17 03:25:28;;;;;;;;;;;;;;;-0.76;100.00;93226.56;1050623;56;20133;-83
2021/03/17 03:26:31;;;;;;;;;;;;;;;-0.82;100.00;93222.69;1051000;56;20125;-85
2021/03/17 03:27:32;;;;;;;;;;;;;;;-0.77;100.00;93228.44;1053075;56;21394;-84
2021/03/17 03:28:33;;;;;;;;;;;;;;;-0.76;100.00;93226.56;1050612;56;20260;-83
2021/03/17 03:29:34;;;;;;;;;;;;;;;-0.59;100.00;93228.81;1050222;56;20193;-82
2021/03/17 03:30:36;;;;;;;;;;;;;;;-0.61;100.00;93217.91;1050985;56;20160;-84
2021/03/17 03:31:36;;;;;;;;;;;;;;;-0.66;100.00;93226.06;1046777;56;20129;-83
2021/03/17 03:32:36;;;;;;;;;;;;;;;-0.70;100.00;93229.69;1050899;56;20184;-84
2021/03/17 03:33:37;;;;;;;;;;;;;;;-0.79;100.00;93222.78;1048407;57;20710;-84
2021/03/17 03:34:37;;;;;;;;;;;;;;;-0.77;100.00;93225.03;1050655;56;20113;-83
2021/03/17 03:35:38;;;;;;;;;;;;;;;-0.78;100.00;93226.91;1053052;56;20117;-84
2021/03/17 03:36:38;;;;;;;;;;;;;;;-0.74;100.00;93221.00;1050808;56;20661;-83
2021/03/17 03:37:39;;;;;;;;;;;;;;;-0.77;100.00;93225.81;1048595;57;20168;-84
2021/03/17 03:38:40;;;;;;;;;;;;;;;-0.77;100.00;93228.44;1046662;56;20134;-83
2021/03/17 03:39:40;;;;;;;;;;;;;;;-0.77;100.00;93225.03;1050788;56;20682;-83
2021/03/17 03:40:41;;;;;;;;;;;;;;;-0.76;100.00;93223.94;1050496;56;20657;-84
2021/03/17 03:41:42;;;;;;;;;;;;;;;-0.70;100.00;93227.06;1050570;56;20128;-83
2021/03/17 03:42:42;;;;;;;;;;;;;;;-0.77;100.00;93220.56;1048477;56;20182;-84
2021/03/17 03:43:43;;;;;;;;;;;;;;;-0.78;100.00;93224.28;1048587;56;20185;-82
2021/03/17 03:44:43;;;;;;;;;;;;;;;-0.81;100.00;93226.81;1050687;56;20241;-83
2021/03/17 03:45:44;;;;;;;;;;;;;;;-0.85;100.00;93226.75;1048805;57;20149;-84
2021/03/17 03:46:44;;;;;;;;;;;;;;;-0.79;100.00;93235.09;1048524;57;20156;-82
2021/03/17 03:47:45;;;;;;;;;;;;;;;-0.79;100.00;93228.03;1050548;56;20105;-84
2021/03/17 03:48:45;;;;;;;;;;;;;;;-0.71;100.00;93231.53;1052901;56;20191;-84
2021/03/17 03:49:46;;;;;;;;;;;;;;;-0.63;100.00;93235.09;1050416;56;20157;-84
2021/03/17 03:50:48;;;;;;;;;;;;;;;-0.61;100.00;93232.91;1048612;56;20149;-84
2021/03/17 03:51:53;;;;;;;;;;;;;;;-0.69;100.00;93229.34;1049932;56;20164;-82
2021/03/17 03:53:12;;;;;;;;;;;;;;;-0.75;100.00;93235.94;1047893;56;20149;-82
2021/03/17 03:54:16;;;;;;;;;;;;;;;-0.73;100.00;93238.25;1047771;56;20102;-83
2021/03/17 03:55:21;;;;;;;;;;;;;;;-0.63;100.00;93241.09;1048901;56;20634;-82
2021/03/17 03:56:28;;;;;;;;;;;;;;;-0.68;100.00;93238.75;1050676;56;20165;-83
2021/03/17 03:57:32;;;;;;;;;;;;;;;-0.63;100.00;93238.47;1050830;56;20156;-83
2021/03/17 03:58:52;;;;;;;;;;;;;;;-0.64;100.00;93242.22;1048526;56;20173;-82
2021/03/17 03:59:55;;;;;;;;;;;;;;;-0.76;100.00;93232.56;1053472;56;20141;-84
2021/03/17 04:01:15;;;;;;;;;;;;;;;-0.76;100.00;93244.94;1050071;56;20181;-84
2021/03/17 04:02:32;;;;;;;;;;;;;;;-0.76;100.00;93237.81;1042129;57;20828;-81
2021/03/17 04:03:34;;;;;;;;;;;;;;;-0.75;100.00;93243.81;1049546;56;20165;-83
2021/03/17 04:04:37;;;;;;;;;;;;;;;-0.81;100.00;93235.47;1050215;56;20121;-85
2021/03/17 04:05:39;;;;;;;;;;;;;;;-0.81;100.00;93232.84;1048130;56;20173;-81
2021/03/17 04:06:41;;;;;;;;;;;;;;;-0.82;100.00;93233.94;1052666;56;21106;-84
2021/03/17 04:07:42;;;;;;;;;;;;;;;-0.80;100.00;93236.22;1050404;56;20180;-83
2021/03/17 04:08:47;;;;;;;;;;;;;;;-0.70;100.00;93240.19;1048564;56;20180;-83
2021/03/17 04:09:49;;;;;;;;;;;;;;;-0.75;100.00;93233.31;1050895;56;20172;-85
2021/03/17 04:10:54;;;;;;;;;;;;;;;-0.77;100.00;93238.94;1050700;56;20179;-84
2021/03/17 04:11:57;;;;;;;;;;;;;;;-0.77;100.00;93238.16;1046905;56;20182;-84
2021/03/17 04:12:58;;;;;;;;;;;;;;;-0.75;100.00;93243.81;1050632;56;20279;-83
2021/03/17 04:14:01;;;;;;;;;;;;;;;-0.76;100.00;93243.06;1050611;56;20152;-83
2021/03/17 04:15:03;;;;;;;;;;;;;;;-0.77;100.00;93238.94;1052852;56;20123;-84
2021/03/17 04:16:04;;;;;;;;;;;;;;;-0.72;100.00;93237.16;1050550;56;20224;-83
2021/03/17 04:17:10;;;;;;;;;;;;;;;-0.67;100.00;93242.13;1050122;56;20178;-81
2021/03/17 04:18:12;;;;;;;;;;;;;;;-0.68;100.00;93235.38;1050115;56;20224;-83
2021/03/17 04:19:13;;;;;;;;;;;;;;;-0.72;100.00;93237.16;1050301;56;21161;-85
2021/03/17 04:20:17;;;;;;;;;;;;;;;-0.74;100.00;93234.88;1048772;56;20113;-83
2021/03/17 04:21:18;;;;;;;;;;;;;;;-0.74;100.00;93237.50;1052468;56;20105;-83
2021/03/17 04:22:20;;;;;;;;;;;;;;;-0.73;100.00;93238.25;1052396;56;20123;-83
2021/03/17 04:23:23;;;;;;;;;;;;;;;-0.79;100.00;93228.03;1050762;56;20133;-84
2021/03/17 04:24:25;;;;;;;;;;;;;;;-0.68;100.00;93240.63;1050708;56;20103;-84
2021/03/17 04:25:26;;;;;;;;;;;;;;;-0.67;100.00;93248.13;1048719;56;20164;-83
2021/03/17 04:26:28;;;;;;;;;;;;;;;-0.66;100.00;93236.56;1050734;56;20128;-83
2021/03/17 04:27:29;;;;;;;;;;;;;;;-0.67;100.00;93239.50;1050669;56;20137;-84
2021/03/17 04:28:30;;;;;;;;;;;;;;;-0.64;100.00;93239.59;1050420;56;20631;-83
2021/03/17 04:29:31;;;;;;;;;;;;;;;-0.70;100.00;93240.19;1050805;56;20148;-85
2021/03/17 04:30:31;;;;;;;;;;;;;;;-0.77;100.00;93243.41;1048418;56;20146;-82
2021/03/17 04:31:32;;;;;;;;;;;;;;;-0.80;100.00;93238.84;1050543;56;20176;-85
2021/03/17 04:32:34;;;;;;;;;;;;;;;-0.81;100.00;93242.56;1052841;56;20106;-82
2021/03/17 04:33:36;;;;;;;;;;;;;;;-0.78;100.00;93245.28;1050464;56;20183;-84
2021/03/17 04:34:37;;;;;;;;;;;;;;;-0.81;100.00;93243.34;1048455;56;20165;-84
2021/03/17 04:35:37;;;;;;;;;;;;;;;-0.85;100.00;93237.25;1052931;56;20180;-83
2021/03/17 04:36:38;;;;;;;;;;;;;;;-0.88;100.00;93247.66;1050653;56;20196;-84
2021/03/17 04:37:41;;;;;;;;;;;;;;;-0.82;100.00;93246.31;1048451;56;20175;-85
2021/03/17 04:38:42;;;;;;;;;;;;;;;-0.81;100.00;93248.59;1046831;56;20162;-83
2021/03/17 04:39:43;;;;;;;;;;;;;;;-0.79;100.00;93243.78;1046603;56;20184;-84
2021/03/17 04:40:44;;;;;;;;;;;;;;;-0.80;100.00;93249.34;1048541;56;20160;-83
2021/03/17 04:41:46;;;;;;;;;;;;;;;-0.85;100.00;93246.97;1052673;56;20212;-83
2021/03/17 04:42:46;;;;;;;;;;;;;;;-0.85;100.00;93245.12;1052601;56;20152;-84
2021/03/17 04:43:47;;;;;;;;;;;;;;;-0.82;100.00;93249.69;1052800;56;20175;-83
2021/03/17 04:44:48;;;;;;;;;;;;;;;-0.83;100.00;93242.91;1050737;56;20689;-83
2021/03/17 04:45:49;;;;;;;;;;;;;;;-0.74;100.00;93245.38;1046363;56;20173;-83
2021/03/17 04:46:50;;;;;;;;;;;;;;;-0.79;100.00;93254.25;1048899;56;20110;-84
2021/03/17 04:47:52;;;;;;;;;;;;;;;-0.81;100.00;93250.44;1052912;56;20247;-84
2021/03/17 04:48:53;;;;;;;;;;;;;;;-0.88;100.00;93250.28;1052870;56;20179;-82
2021/03/17 04:49:55;;;;;;;;;;;;;;;-0.83;100.00;93247.41;1050317;56;20237;-82
2021/03/17 04:50:57;;;;;;;;;;;;;;;-0.80;100.00;93251.97;1046257;56;20726;-82
2021/03/17 04:51:58;;;;;;;;;;;;;;;-0.81;100.00;93245.97;1048416;56;20121;-82
2021/03/17 04:52:58;;;;;;;;;;;;;;;-0.84;100.00;93248.50;1048629;57;20153;-81
2021/03/17 04:53:58;;;;;;;;;;;;;;;-0.81;100.00;93247.81;1050610;56;20270;-83
2021/03/17 04:56:04;;;;;;;;;;;;;;;-0.84;100.00;93241.37;1057091;48;20161;-83
2021/03/17 04:57:05;;;;;;;;;;;;;;;-0.83;100.00;93257.91;1052759;56;20137;-82
2021/03/17 04:58:09;;;;;;;;;;;;;;;-0.78;100.00;93252.41;1047811;56;20588;-84
2021/03/17 04:59:11;;;;;;;;;;;;;;;-0.74;100.00;93253.25;1048705;56;20110;-82
2021/03/17 05:00:16;;;;;;;;;;;;;;;-0.76;100.00;93248.31;1050765;56;20180;-82
2021/03/17 05:01:17;;;;;;;;;;;;;;;-0.74;100.00;93248.00;1048461;56;20177;-82
2021/03/17 05:02:19;;;;;;;;;;;;;;;-0.77;100.00;93248.66;1048570;57;20647;-83
2021/03/17 05:03:22;;;;;;;;;;;;;;;-0.79;100.00;93248.22;1050387;56;20768;-83
2021/03/17 05:04:22;;;;;;;;;;;;;;;-0.80;100.00;93246.72;1050687;56;20188;-83
2021/03/17 05:05:23;;;;;;;;;;;;;;;-0.78;100.00;93250.53;1052836;56;20160;-82
2021/03/17 05:06:24;;;;;;;;;;;;;;;-0.70;100.00;93250.69;1052679;56;20175;-81
2021/03/17 05:07:25;;;;;;;;;;;;;;;-0.74;100.00;93248.00;1049119;56;20181;-84
2021/03/17 05:08:26;;;;;;;;;;;;;;;-0.85;100.00;93247.72;1050552;56;20121;-82
2021/03/17 05:09:26;;;;;;;;;;;;;;;-0.73;100.00;93249.50;1050289;56;20148;-84
2021/03/17 05:10:27;;;;;;;;;;;;;;;-0.73;100.00;93246.88;1052735;56;20191;-83
2021/03/17 05:11:28;;;;;;;;;;;;;;;-0.79;100.00;93250.84;1052530;56;20703;-87
2021/03/17 05:12:29;;;;;;;;;;;;;;;-0.81;100.00;93251.19;1050503;56;20186;-84
2021/03/17 05:13:30;;;;;;;;;;;;;;;-0.80;100.00;93263.22;1050615;56;20113;-83
2021/03/17 05:14:34;;;;;;;;;;;;;;;-0.83;100.00;93253.41;1054346;56;20174;-82
2021/03/17 05:15:35;;;;;;;;;;;;;;;-0.82;100.00;93257.56;1050629;56;20200;-85
2021/03/17 05:16:36;;;;;;;;;;;;;;;-0.81;100.00;93250.44;1050401;56;20183;-84
2021/03/17 05:17:37;;;;;;;;;;;;;;;-0.79;100.00;93262.13;1048473;56;20179;-83
2021/03/17 05:18:39;;;;;;;;;;;;;;;-0.74;100.00;93255.09;1048395;56;20153;-83
2021/03/17 05:19:41;;;;;;;;;;;;;;;-0.73;100.00;93256.63;1050370;56;20188;-82
2021/03/17 05:20:43;;;;;;;;;;;;;;;-0.72;100.00;93258.91;1050369;56;20791;-82
2021/03/17 05:21:44;;;;;;;;;;;;;;;-0.78;100.00;93263.66;1050206;56;20223;-83
2021/03/17 05:22:46;;;;;;;;;;;;;;;-0.74;100.00;93262.97;1052231;56;20168;-83
2021/03/17 05:23:47;;;;;;;;;;;;;;;-0.77;100.00;93265.16;1048242;56;20149;-84
2021/03/17 05:24:48;;;;;;;;;;;;;;;-0.78;100.00;93263.66;1048354;57;20094;-84
2021/03/17 05:25:48;;;;;;;;;;;;;;;-0.77;100.00;93269.66;1048474;56;20101;-84
2021/03/17 05:26:49;;;;;;;;;;;;;;;-0.76;100.00;93269.31;1050523;56;20171;-83
2021/03/17 05:27:51;;;;;;;;;;;;;;;-0.74;100.00;93269.00;1052726;56;20104;-85
2021/03/17 05:28:52;;;;;;;;;;;;;;;-0.70;100.00;93266.41;1050580;56;20125;-84
2021/03/17 05:29:53;;;;;;;;;;;;;;;-0.74;100.00;93266.38;1049083;56;20649;-82
2021/03/17 05:30:54;;;;;;;;;;;;;;;-0.76;100.00;93268.56;1050976;56;20144;-84
2021/03/17 05:31:56;;;;;;;;;;;;;;;-0.76;100.00;93271.19;1048808;57;20706;-83
2021/03/17 05:32:56;;;;;;;;;;;;;;;-0.74;100.00;93271.63;1050802;56;20156;-83
2021/03/17 05:33:57;;;;;;;;;;;;;;;-0.79;100.00;93277.87;1050869;56;20184;-82
2021/03/17 05:34:59;;;;;;;;;;;;;;;-0.76;100.00;93274.56;1050939;56;20700;-83
2021/03/17 05:36:00;;;;;;;;;;;;;;;-0.73;100.00;93270.50;1052642;56;20293;-86
2021/03/17 05:37:00;;;;;;;;;;;;;;;-0.69;100.00;93273.97;1050931;56;20153;-84
2021/03/17 05:38:01;;;;;;;;;;;;;;;-0.66;100.00;93269.88;1051629;56;20156;-83
2021/03/17 05:39:02;;;;;;;;;;;;;;;-0.71;100.00;93275.41;1053062;56;20179;-87
2021/03/17 05:40:04;;;;;;;;;;;;;;;-0.74;100.00;93281.34;1052362;56;20661;-85
2021/03/17 05:41:05;;;;;;;;;;;;;;;-0.73;100.00;93278.37;1049088;56;20223;-85
2021/03/17 05:42:05;;;;;;;;;;;;;;;-0.76;100.00;93277.19;1048755;56;20696;-83
2021/03/17 05:43:07;;;;;;;;;;;;;;;-0.81;100.00;93276.69;1050884;56;20240;-84
2021/03/17 05:44:08;;;;;;;;;;;;;;;-0.81;100.00;93281.94;1052882;56;20152;-82
2021/03/17 05:45:19;;;;;;;;;;;;;;;-0.81;100.00;93277.44;1048538;56;20156;-85
2021/03/17 05:46:19;;;;;;;;;;;;;;;-0.73;100.00;93282.88;1049464;56;20167;-83
2021/03/17 05:47:21;;;;;;;;;;;;;;;-0.69;100.00;93273.22;1048719;57;20116;-84
2021/03/17 05:48:22;;;;;;;;;;;;;;;-0.74;100.00;93276.88;1048797;56;20204;-84
2021/03/17 05:49:23;;;;;;;;;;;;;;;-0.74;100.00;93279.50;1048687;57;20200;-83
2021/03/17 05:50:24;;;;;;;;;;;;;;;-0.67;100.00;93282.25;1048657;56;20165;-86
2021/03/17 05:51:24;;;;;;;;;;;;;;;-0.69;100.00;93284.47;1050372;56;20197;-83
2021/03/17 05:52:25;;;;;;;;;;;;;;;-0.79;100.00;93282.34;1052820;56;20223;-86
2021/03/17 05:53:26;;;;;;;;;;;;;;;-0.76;100.00;93285.06;1052860;56;20156;-83
2021/03/17 05:54:27;;;;;;;;;;;;;;;-0.66;100.00;93286.44;1050369;56;20277;-80
2021/03/17 05:55:27;;;;;;;;;;;;;;;-0.70;100.00;93280.34;1124166;39;20290;-84
2021/03/17 05:56:30;;;;;;;;;;;;;;;-0.60;100.00;93282.44;1050547;49;20192;-84
2021/03/17 05:57:30;;;;;;;;;;;;;;;-0.55;100.00;93286.66;1050294;56;20160;-84
2021/03/17 05:58:31;;;;;;;;;;;;;;;-0.60;100.00;93289.53;1048567;57;20125;-85
2021/03/17 05:59:31;;;;;;;;;;;;;;;-0.73;100.00;93290.75;1051033;56;20144;-83
2021/03/17 06:00:32;;;;;;;;;;;;;;;-0.76;100.00;93285.06;1051164;56;20160;-83
2021/03/17 06:01:32;;;;;;;;;;;;;;;-0.63;100.00;93290.97;1048606;56;20165;-83
2021/03/17 06:02:33;;;;;;;;;;;;;;;-0.77;100.00;93294.03;1048891;57;20117;-83
2021/03/17 06:03:34;;;;;;;;;;;;;;;-0.76;100.00;93300.03;1048675;57;20226;-82
2021/03/17 06:04:38;;;;;;;;;;;;;;;-0.73;100.00;93296.00;1048008;56;21258;-84
2021/03/17 06:05:39;;;;;;;;;;;;;;;-0.74;100.00;93300.47;1048846;56;20184;-83
2021/03/17 06:06:40;;;;;;;;;;;;;;;-0.69;100.00;93299.47;1048788;57;20168;-83
2021/03/17 06:07:42;;;;;;;;;;;;;;;-0.76;100.00;93305.28;1046639;56;20252;-84